• Join FlightAware (Why Join?)
  • Login
  • US Flag 
03:50AM EDT


 

Airport Tracker/Info


-or-


 

Live Flight TrackerFlight Track Log ✈ DAL2241 ✈ 19-Apr-2013 ✈ KSLC - KLAX

Flight Track Log - Related Links

Times and Time Zones

All times are in EDT time to prevent confusion due to time zone crossing. See the DAL2241 flight status page for this flight to view local times or setup timezone preferences in your user account.

Time Position Orientation Groundspeed Altitude Reporting Facility
EDT Latitude Longitude Course Direction KTS MPH feet Rate Location/Type
05:14PM 40.7647 -111.9964 189° South 186 214 5,300  Level Salt Lake Center
05:14PM 40.7531 -111.9925 166° South 181 208 5,800 1,620 Climbing Salt Lake Center
05:15PM 40.7292 -111.9914 178° South 204 235 6,300 2,280 Climbing Salt Lake Center
05:15PM 40.6864 -111.9831 172° South 248 285 8,200 2,940 Climbing Salt Lake Center
05:16PM 40.6544 -111.9831 180° South 252 290 9,600 3,120 Climbing Salt Lake Center
05:16PM 40.6161 -111.9736 169° South 255 293 11,400 2,340 Climbing Salt Lake Center
05:17PM 40.4449 -111.9483 166° South  Level FlightAware Approximate
05:17PM 40.5789 -111.9717 178° South 266 306 12,000  Level Salt Lake Center
05:17PM 40.5317 -111.9619 171° South 314 361 12,500 960 Climbing Salt Lake Center
05:18PM 40.3333 -111.9333 180° South  Level FlightAware Approximate
05:18PM 40.4819 -111.9594 178° South 363 418 13,000  Level Salt Lake Center
05:18PM 40.4056 -111.9489 174° South 382 440 14,600 2,400 Climbing Salt Lake Center
05:19PM 40.2209 -111.9425 189° South  Level FlightAware Approximate
05:19PM 40.2933 -111.9408 177° South 402 463 17,200  Level Salt Lake Center
05:20PM 40.1778 -111.9542 185° South 418 481 18,900 1,740 Climbing Salt Lake Center
05:21PM 40.0569 -111.9708 186° South 435 501 20,900 1,800 Climbing Salt Lake Center
05:22PM 39.9336 -111.9892 187° South 446 513 22,700 1,740 Climbing Salt Lake Center
05:24PM 39.8069 -112.0075 186° South 455 524 24,500 1,620 Climbing Salt Lake Center
05:25PM 39.6814 -112.0275 187° South 454 522 26,100 1,440 Climbing Salt Lake Center
05:26PM 39.5225 -112.0500 186° South 472 543 27,500 1,320 Climbing Salt Lake Center
05:27PM 39.3861 -112.0703 187° South 488 562 28,900 1,440 Climbing Salt Lake Center
05:28PM 39.2519 -112.0889 186° South 488 562 30,500 1,500 Climbing Salt Lake Center
05:29PM 39.1078 -112.1272 192° South 481 554 32,100 1,440 Climbing Salt Lake Center
05:30PM 38.9997 -112.2061 210° Southwest 451 519 33,500 1,320 Climbing Salt Lake Center
05:31PM 38.8908 -112.2833 209° Southwest 448 516 34,900 1,260 Climbing Salt Lake Center
05:32PM 38.7850 -112.3608 210° Southwest 442 509 36,100 900 Climbing Salt Lake Center
05:33PM 38.6789 -112.4381 210° Southwest 439 505 36,800 540 Climbing Salt Lake Center
05:34PM 38.5689 -112.5161 209° Southwest 451 519 37,300 480 Climbing Salt Lake Center
05:35PM 38.4589 -112.5958 210° Southwest 455 524 37,900 300 Climbing Salt Lake Center
05:36PM 38.3256 -112.6906 209° Southwest 458 527 38,000  Climbing Salt Lake Center
05:37PM 38.2142 -112.7697 209° Southwest 460 529 38,000  Level Salt Lake Center
05:38PM 38.1031 -112.8481 209° Southwest 460 529 38,000  Level Salt Lake Center
05:39PM 37.9919 -112.9272 209° Southwest 460 529 38,000  Level Salt Lake Center
05:40PM 37.8797 -113.0042 208° Southwest 462 532 38,000  Level Salt Lake Center
05:41PM 37.7522 -113.1031 212° Southwest 458 527 38,000  Level Salt Lake Center
05:42PM 37.6594 -113.2006 220° Southwest 442 509 38,000  Level Salt Lake Center
05:43PM 37.5642 -113.2975 219° Southwest 444 511 38,000  Level Salt Lake Center
05:44PM 37.4686 -113.3958 219° Southwest 446 513 38,000  Level Salt Lake Center
05:45PM 37.3736 -113.4914 219° Southwest 440 506 38,000  Level Salt Lake Center
05:46PM 37.3169 -113.5475 218° Southwest 437 503 38,000  Level Los Angeles Center
05:47PM 37.2236 -113.6442 220° Southwest 436 502 38,000  Level Los Angeles Center
05:47PM 37.1653 -113.7019 218° Southwest 440 506 38,000  Level Salt Lake Center
05:48PM 37.0700 -113.7969 219° Southwest 439 505 38,000  Level Salt Lake Center
05:49PM 37.0139 -113.8553 220° Southwest 440 506 38,000  Level Los Angeles Center
05:50PM 36.9231 -113.9458 219° Southwest 444 511 38,000  Level Los Angeles Center
05:51PM 36.8256 -114.0436 219° Southwest 446 513 38,000  Level Los Angeles Center
05:52PM 36.7217 -114.1456 218° Southwest 449 517 38,000  Level Los Angeles Center
05:53PM 36.6111 -114.2575 219° Southwest 447 514 38,000  Level Los Angeles Center
05:54PM 36.5161 -114.3536 219° Southwest 441 507 38,000  Level Los Angeles Center
05:55PM 36.4206 -114.4458 218° Southwest 435 501 38,000  Level Los Angeles Center
05:56PM 36.3247 -114.5400 218° Southwest 436 502 38,000  Level Los Angeles Center
05:57PM 36.2294 -114.6350 219° Southwest 436 502 38,000  Level Los Angeles Center
05:58PM 36.1325 -114.7294 218° Southwest 439 505 38,000  Level Los Angeles Center
05:59PM 36.0347 -114.8244 218° Southwest 442 509 38,000  Level Los Angeles Center
06:00PM 35.9303 -114.9486 224° Southwest 433 498 38,000  Level Los Angeles Center
06:01PM 35.8503 -115.0600 228° Southwest 432 497 38,000  Level Los Angeles Center
06:02PM 35.7681 -115.1708 228° Southwest 434 499 38,000  Level Los Angeles Center
06:03PM 35.6858 -115.2833 228° Southwest 439 505 38,000  Level Los Angeles Center
06:04PM 35.6056 -115.3931 228° Southwest 431 496 38,000  Level Los Angeles Center
06:05PM 35.5236 -115.5036 228° Southwest 433 498 38,000  Level Los Angeles Center
06:06PM 35.4383 -115.6178 228° Southwest 434 499 38,000  Level Los Angeles Center
06:07PM 35.3558 -115.7256 227° Southwest 433 498 38,000 -240 Level Los Angeles Center
06:08PM 35.2700 -115.8292 225° Southwest 433 498 37,600 -720 Descending Los Angeles Center
06:09PM 35.1792 -115.9303 222° Southwest 438 504 36,600 -1,020 Descending Los Angeles Center
06:11PM 35.0692 -116.0544 223° Southwest 446 513 35,500 -1,020 Descending Los Angeles Center
06:12PM 34.9758 -116.1550 221° Southwest 447 514 34,500 -960 Descending Los Angeles Center
06:13PM 34.8853 -116.2575 223° Southwest 445 512 33,600 -960 Descending Los Angeles Center
06:14PM 34.7922 -116.3597 222° Southwest 448 516 32,600 -960 Descending Los Angeles Center
06:15PM 34.6986 -116.4644 223° Southwest 454 522 31,700 -960 Descending Los Angeles Center
06:16PM 34.6031 -116.5686 222° Southwest 459 528 30,700 -1,920 Descending Los Angeles Center
06:17PM 34.4894 -116.6919 222° Southwest 455 524 27,800 -2,940 Descending Los Angeles Center
06:18PM 34.3944 -116.7953 222° Southwest 457 526 24,700 -2,820 Descending Los Angeles Center
06:19PM 34.3028 -116.8956 222° Southwest 445 512 22,000 -2,580 Descending Los Angeles Center
06:20PM 34.2131 -116.9917 222° Southwest 432 497 19,400 -1,920 Descending Los Angeles Center
06:21PM 34.1289 -117.0833 222° Southwest 411 473 18,000 -960 Descending Los Angeles Center
06:21PM 34.1000 -117.1500 242° Southwest 346 398 18,000 -780 Level Southern California TRACON
06:22PM 34.0500 -117.2333 234° Southwest 314 361 16,900 -1,320 Descending Southern California TRACON
06:23PM 34.0333 -117.3500 260° West 298 343 15,300 -1,500 Descending Southern California TRACON
06:24PM 34.0333 -117.4333 270° West 295 339 13,900 -1,500 Descending Southern California TRACON
06:25PM 34.0167 -117.5333 259° West 288 331 12,500 -1,440 Descending Southern California TRACON
06:26PM 34.0167 -117.6333 270° West 357 411 11,100 -1,560 Descending Southern California TRACON
06:27PM 34.0000 -117.7333 259° West 281 323 9,300 -1,500 Descending Southern California TRACON
06:28PM 34.0000 -117.8333 270° West 288 331 8,000 -1,260 Descending Southern California TRACON
06:29PM 33.9833 -117.9333 259° West 291 335 6,800 -1,200 Descending Southern California TRACON
06:30PM 33.9667 -118.0167 256° West 270 311 5,600 -1,080 Descending Southern California TRACON
06:31PM 33.9667 -118.1000 270° West 228 262 4,700 -1,020 Descending Southern California TRACON
06:32PM 33.9611 -118.1558 263° West 229 264 3,800 -1,200 Descending Los Angeles Center